createdAt,value
2019-01-09T00:00:08.607Z,13.10
2019-01-09T00:02:36.710Z,12.77
2019-01-09T00:05:04.850Z,12.50
2019-01-09T00:07:32.984Z,12.07
2019-01-09T00:10:01.094Z,12.90
2019-01-09T00:12:29.247Z,13.10
2019-01-09T00:14:57.361Z,11.30
2019-01-09T00:17:25.445Z,10.80
2019-01-09T00:19:53.630Z,11.13
2019-01-09T00:22:21.696Z,11.57
2019-01-09T00:24:49.866Z,12.00
2019-01-09T00:27:17.969Z,10.97
2019-01-09T00:29:46.032Z,10.23
2019-01-09T00:32:14.146Z,11.03
2019-01-09T00:34:42.265Z,9.73
2019-01-09T00:37:10.354Z,9.80
2019-01-09T00:39:38.488Z,11.07
2019-01-09T00:42:06.622Z,10.13
2019-01-09T00:44:34.722Z,9.93
2019-01-09T00:47:02.886Z,10.63
2019-01-09T00:49:31.031Z,10.03
2019-01-09T00:51:59.122Z,9.63
2019-01-09T00:54:27.280Z,9.57
2019-01-09T00:56:55.390Z,9.40
2019-01-09T00:59:23.464Z,8.90
2019-01-09T01:01:56.069Z,9.03
2019-01-09T01:04:39.860Z,8.63
2019-01-09T01:07:32.890Z,9.97
2019-01-09T01:10:18.857Z,8.90
2019-01-09T01:13:24.504Z,8.93
2019-01-09T01:16:05.097Z,9.67
2019-01-09T01:18:44.450Z,8.90
2019-01-09T01:21:14.922Z,8.10
2019-01-09T01:24:11.530Z,7.97
2019-01-09T01:27:04.949Z,8.27
2019-01-09T01:29:43.190Z,9.07
2019-01-09T01:32:33.466Z,7.63
2019-01-09T01:35:16.954Z,9.47
2019-01-09T01:38:07.300Z,7.93
2019-01-09T01:40:54.099Z,7.80
2019-01-09T01:43:24.987Z,7.57
2019-01-09T01:46:03.563Z,8.37
2019-01-09T01:48:49.811Z,7.33
2019-01-09T01:51:24.179Z,7.10
2019-01-09T01:53:58.145Z,7.80
2019-01-09T01:56:51.163Z,7.00
2019-01-09T01:59:38.385Z,7.77
2019-01-09T02:02:31.380Z,6.83
2019-01-09T02:05:17.108Z,6.90
2019-01-09T02:08:01.138Z,7.53
2019-01-09T02:10:34.971Z,6.73
2019-01-09T02:13:10.782Z,6.53
2019-01-09T02:16:01.064Z,7.37
2019-01-09T02:18:34.120Z,6.27
2019-01-09T02:21:30.315Z,6.33
2019-01-09T02:24:36.001Z,6.90
2019-01-09T02:27:32.184Z,6.47
2019-01-09T02:30:18.152Z,6.90
2019-01-09T02:32:46.374Z,6.27
2019-01-09T02:35:14.619Z,5.90
2019-01-09T02:37:42.839Z,6.10
2019-01-09T02:40:14.015Z,6.07
2019-01-09T02:42:42.190Z,6.63
2019-01-09T02:45:10.331Z,6.37
2019-01-09T02:47:38.449Z,6.10
2019-01-09T02:50:06.534Z,6.07
2019-01-09T02:52:34.671Z,6.60
2019-01-09T02:55:02.791Z,6.10
2019-01-09T02:57:30.956Z,8.07
2019-01-09T02:59:59.031Z,8.53
2019-01-09T03:02:27.144Z,6.20
2019-01-09T03:04:55.199Z,6.20
2019-01-09T03:07:23.373Z,6.13
2019-01-09T03:09:51.520Z,6.00
2019-01-09T03:12:19.627Z,6.27
2019-01-09T03:14:47.736Z,5.97
2019-01-09T03:17:15.853Z,5.13
2019-01-09T03:19:44.598Z,5.70
2019-01-09T03:22:13.681Z,5.97
2019-01-09T03:24:41.984Z,6.57
2019-01-09T03:27:10.507Z,5.73
2019-01-09T03:29:38.917Z,5.57
2019-01-09T03:32:07.476Z,5.43
2019-01-09T03:34:36.209Z,5.30
2019-01-09T03:37:04.791Z,5.47
2019-01-09T03:39:33.650Z,5.17
2019-01-09T03:42:02.132Z,5.63
2019-01-09T03:44:30.224Z,6.20
2019-01-09T03:46:58.298Z,6.37
2019-01-09T03:49:26.527Z,6.10
2019-01-09T03:51:54.645Z,5.37
2019-01-09T03:54:22.694Z,5.57
2019-01-09T03:56:50.816Z,4.93
2019-01-09T03:59:18.944Z,5.33
2019-01-09T04:01:46.974Z,5.47
2019-01-09T04:04:15.022Z,6.90
2019-01-09T04:06:43.092Z,5.40
2019-01-09T04:09:11.249Z,5.43
2019-01-09T04:11:39.410Z,6.00
2019-01-09T04:14:07.529Z,5.60
2019-01-09T04:16:35.596Z,5.63
2019-01-09T04:19:03.840Z,6.47
2019-01-09T04:21:32.052Z,5.50
2019-01-09T04:24:00.189Z,5.90
2019-01-09T04:26:28.265Z,5.43
2019-01-09T04:28:56.345Z,6.20
2019-01-09T04:31:24.921Z,5.40
2019-01-09T04:33:53.104Z,5.60
2019-01-09T04:36:21.334Z,5.70
2019-01-09T04:38:49.354Z,5.90
2019-01-09T04:41:17.568Z,5.53
2019-01-09T04:43:45.638Z,5.37
2019-01-09T04:46:13.763Z,5.10
2019-01-09T04:48:42.024Z,5.53
2019-01-09T04:51:10.073Z,5.80
2019-01-09T04:53:38.154Z,5.60
2019-01-09T04:56:06.321Z,6.90
2019-01-09T04:58:34.390Z,5.43
2019-01-09T05:01:02.588Z,5.40
2019-01-09T05:03:30.919Z,5.67
2019-01-09T05:05:59.049Z,5.37
2019-01-09T05:08:27.107Z,5.20
2019-01-09T05:10:55.297Z,5.37
2019-01-09T05:13:23.567Z,5.60
2019-01-09T05:15:51.788Z,7.37
2019-01-09T05:18:19.828Z,9.43
2019-01-09T05:20:47.887Z,5.43
2019-01-09T05:23:16.007Z,5.90
2019-01-09T05:25:44.059Z,6.30
2019-01-09T05:28:12.162Z,6.00
2019-01-09T05:30:40.308Z,6.37
2019-01-09T05:33:08.420Z,6.33
2019-01-09T05:35:36.470Z,5.97
2019-01-09T05:38:04.694Z,11.77
2019-01-09T05:40:33.809Z,7.57
2019-01-09T05:43:01.884Z,24.90
2019-01-09T05:45:30.017Z,7.03
2019-01-09T05:47:58.122Z,6.47
2019-01-09T05:50:26.273Z,7.30
2019-01-09T05:52:54.409Z,5.67
2019-01-09T05:55:22.651Z,6.80
2019-01-09T05:57:50.894Z,7.10
2019-01-09T06:00:19.060Z,9.07
2019-01-09T06:02:47.219Z,20.87
2019-01-09T06:05:15.314Z,16.67
2019-01-09T06:07:43.427Z,13.80
2019-01-09T06:10:11.493Z,10.90
2019-01-09T06:12:39.684Z,11.53
2019-01-09T06:15:07.903Z,13.20
2019-01-09T06:17:36.098Z,10.40
2019-01-09T06:20:04.374Z,13.23
2019-01-09T06:22:32.413Z,10.00
2019-01-09T06:25:00.662Z,11.37
2019-01-09T06:27:28.760Z,8.70
2019-01-09T06:29:56.845Z,10.73
2019-01-09T06:32:24.959Z,8.63
2019-01-09T06:34:53.067Z,10.03
2019-01-09T06:37:27.421Z,7.70
2019-01-09T06:39:50.928Z,11.87
2019-01-09T06:42:19.018Z,8.60
2019-01-09T06:44:47.134Z,8.80
2019-01-09T06:47:15.260Z,6.93
2019-01-09T06:49:43.451Z,12.43
2019-01-09T06:52:11.525Z,6.80
2019-01-09T06:54:39.635Z,8.37
2019-01-09T06:57:07.728Z,7.73
2019-01-09T06:59:35.996Z,9.83
2019-01-09T07:02:04.118Z,10.00
2019-01-09T07:04:32.200Z,8.27
2019-01-09T07:07:00.269Z,8.80
2019-01-09T07:09:28.381Z,6.70
2019-01-09T07:11:56.442Z,7.97
2019-01-09T07:14:24.651Z,7.63
2019-01-09T07:16:52.768Z,8.10
2019-01-09T07:19:20.845Z,8.00
2019-01-09T07:21:48.953Z,7.73
2019-01-09T07:24:17.080Z,7.20
2019-01-09T07:26:45.167Z,7.53
2019-01-09T07:29:13.283Z,7.10
2019-01-09T07:31:41.325Z,7.27
2019-01-09T07:34:09.400Z,7.07
2019-01-09T07:36:37.581Z,7.07
2019-01-09T07:39:06.799Z,7.00
2019-01-09T07:41:34.915Z,7.00
2019-01-09T07:44:02.953Z,7.53
2019-01-09T07:46:31.062Z,6.20
2019-01-09T07:48:59.166Z,6.70
2019-01-09T07:51:27.259Z,6.23
2019-01-09T07:53:57.462Z,7.00
2019-01-09T07:56:25.284Z,6.20
2019-01-09T07:58:53.449Z,6.00
2019-01-09T08:01:21.642Z,5.83
2019-01-09T08:03:49.893Z,5.97
2019-01-09T08:06:17.982Z,6.20
2019-01-09T08:08:46.125Z,6.20
2019-01-09T08:11:14.160Z,5.93
2019-01-09T08:13:42.285Z,6.33
2019-01-09T08:16:10.595Z,6.03
2019-01-09T08:18:38.694Z,5.83
2019-01-09T08:21:06.746Z,6.23
2019-01-09T08:23:34.898Z,8.10
2019-01-09T08:26:02.947Z,5.67
2019-01-09T08:28:31.092Z,5.93
2019-01-09T08:30:59.144Z,6.13
2019-01-09T08:33:27.244Z,5.80
2019-01-09T08:35:55.432Z,5.87
2019-01-09T08:38:23.517Z,6.60
2019-01-09T08:40:51.888Z,5.83
2019-01-09T08:43:20.258Z,6.43
2019-01-09T08:45:48.354Z,6.77
2019-01-09T08:48:16.481Z,6.40
2019-01-09T08:50:44.568Z,5.70
2019-01-09T08:53:12.620Z,5.87
2019-01-09T08:55:40.698Z,5.50
2019-01-09T08:58:08.825Z,5.50
2019-01-09T09:00:36.900Z,6.13
2019-01-09T09:03:05.018Z,5.90
2019-01-09T09:05:33.077Z,5.53
2019-01-09T09:08:11.737Z,5.90
2019-01-09T09:10:34.128Z,5.70
2019-01-09T09:13:02.255Z,5.53
2019-01-09T09:15:30.420Z,5.53
2019-01-09T09:17:58.616Z,5.60
2019-01-09T09:20:26.750Z,5.90
2019-01-09T09:22:54.851Z,6.53
2019-01-09T09:25:23.064Z,6.70
2019-01-09T09:27:51.109Z,6.10
2019-01-09T09:30:19.175Z,5.73
2019-01-09T09:32:47.249Z,6.40
2019-01-09T09:35:15.312Z,6.17
2019-01-09T09:37:43.474Z,5.27
2019-01-09T09:40:12.942Z,5.30
2019-01-09T09:42:40.976Z,5.50
2019-01-09T09:45:09.428Z,5.47
2019-01-09T09:47:37.564Z,5.07
2019-01-09T09:50:06.045Z,5.17
2019-01-09T09:52:34.159Z,6.47
2019-01-09T09:55:02.208Z,6.23
2019-01-09T09:57:30.434Z,5.73
2019-01-09T09:59:58.534Z,5.70
2019-01-09T10:02:26.617Z,5.50
2019-01-09T10:04:54.693Z,5.60
2019-01-09T10:07:22.837Z,5.17
2019-01-09T10:09:50.948Z,5.60
2019-01-09T10:12:18.997Z,5.47
2019-01-09T10:14:47.142Z,5.70
2019-01-09T10:17:15.296Z,5.83
2019-01-09T10:19:43.619Z,5.23
2019-01-09T10:22:11.726Z,5.37
2019-01-09T10:24:39.830Z,5.20
2019-01-09T10:27:07.948Z,5.77
2019-01-09T10:29:36.078Z,5.10
2019-01-09T10:32:04.328Z,5.03
2019-01-09T10:34:32.428Z,5.63
2019-01-09T10:37:00.523Z,5.10
2019-01-09T10:39:28.641Z,5.33
2019-01-09T10:41:56.759Z,5.20
2019-01-09T10:44:24.817Z,5.00
2019-01-09T10:46:53.795Z,5.43
2019-01-09T10:49:22.002Z,5.40
2019-01-09T10:51:50.093Z,5.30
2019-01-09T10:54:18.264Z,4.97
2019-01-09T10:56:46.378Z,5.10
2019-01-09T10:59:14.613Z,4.93
2019-01-09T11:01:42.660Z,4.90
2019-01-09T11:04:10.847Z,5.30
2019-01-09T11:06:38.939Z,5.43
2019-01-09T11:09:07.909Z,5.10
2019-01-09T11:11:36.040Z,4.60
2019-01-09T11:14:04.438Z,5.07
2019-01-09T11:16:32.524Z,4.63
2019-01-09T11:19:00.646Z,4.87
2019-01-09T11:21:28.840Z,5.13
2019-01-09T11:23:56.969Z,5.03
2019-01-09T11:26:25.077Z,4.80
2019-01-09T11:28:53.266Z,4.80
2019-01-09T11:31:21.476Z,5.00
2019-01-09T11:33:49.537Z,4.60
2019-01-09T11:36:17.721Z,5.10
2019-01-09T11:38:45.913Z,4.93
2019-01-09T11:41:14.035Z,4.63
2019-01-09T11:43:42.201Z,4.73
2019-01-09T11:46:10.351Z,4.50
2019-01-09T11:48:38.470Z,5.30
2019-01-09T11:51:06.519Z,4.40
2019-01-09T11:53:34.636Z,4.70
2019-01-09T11:56:02.798Z,5.00
2019-01-09T11:58:30.917Z,4.70
2019-01-09T12:00:59.150Z,4.67
2019-01-09T12:03:27.272Z,4.37
2019-01-09T12:05:55.320Z,4.60
2019-01-09T12:08:23.472Z,4.60
2019-01-09T12:10:51.592Z,4.37
2019-01-09T12:13:19.737Z,4.30
2019-01-09T12:15:47.888Z,4.20
2019-01-09T12:18:15.990Z,4.30
2019-01-09T12:20:44.154Z,4.43
2019-01-09T12:23:12.340Z,3.83
2019-01-09T12:25:40.503Z,4.40
2019-01-09T12:28:08.653Z,4.30
2019-01-09T12:30:36.793Z,4.23
2019-01-09T12:33:04.973Z,4.13
2019-01-09T12:35:33.356Z,4.30
2019-01-09T12:38:01.543Z,4.30
2019-01-09T12:40:29.652Z,4.13
2019-01-09T12:42:57.750Z,3.93
2019-01-09T12:45:25.944Z,4.10
2019-01-09T12:47:54.240Z,4.03
2019-01-09T12:50:23.518Z,4.13
2019-01-09T12:52:52.789Z,3.83
2019-01-09T12:55:21.076Z,3.67
2019-01-09T12:57:49.307Z,3.70
2019-01-09T13:00:18.969Z,3.63
2019-01-09T13:02:47.056Z,3.80
2019-01-09T13:05:15.196Z,4.07
2019-01-09T13:07:43.346Z,3.63
2019-01-09T13:10:11.404Z,3.60
2019-01-09T13:12:39.510Z,3.60
2019-01-09T13:15:08.002Z,3.83
2019-01-09T13:17:36.107Z,3.50
2019-01-09T13:20:05.191Z,3.43
2019-01-09T13:22:33.513Z,3.83
2019-01-09T13:25:01.709Z,4.10
2019-01-09T13:27:29.811Z,3.50
2019-01-09T13:29:57.864Z,3.70
2019-01-09T13:32:26.026Z,3.80
2019-01-09T13:34:54.084Z,4.00
2019-01-09T13:37:22.207Z,3.70
2019-01-09T13:39:50.322Z,3.47
2019-01-09T13:42:18.467Z,3.53
2019-01-09T13:44:46.616Z,3.73
2019-01-09T13:47:14.788Z,3.40
2019-01-09T13:49:42.973Z,3.60
2019-01-09T13:52:11.145Z,3.50
2019-01-09T13:54:39.256Z,3.80
2019-01-09T13:57:07.403Z,3.67
2019-01-09T13:59:35.514Z,3.83
2019-01-09T14:02:03.756Z,3.40
2019-01-09T14:04:31.869Z,3.23
2019-01-09T14:07:00.031Z,3.50
2019-01-09T14:09:28.072Z,3.50
2019-01-09T14:11:56.333Z,3.23
2019-01-09T14:14:24.416Z,3.53
2019-01-09T14:16:52.568Z,3.47
2019-01-09T14:19:20.681Z,3.47
2019-01-09T14:21:48.768Z,3.40
2019-01-09T14:24:16.935Z,3.30
2019-01-09T14:26:45.169Z,3.47
2019-01-09T14:29:13.261Z,3.37
2019-01-09T14:31:41.402Z,3.60
2019-01-09T14:34:09.507Z,3.20
2019-01-09T14:36:37.575Z,3.50
2019-01-09T14:39:07.007Z,3.50
2019-01-09T14:41:35.130Z,3.33
2019-01-09T14:44:03.350Z,3.67
2019-01-09T14:46:31.392Z,3.73
2019-01-09T14:48:59.509Z,3.30
2019-01-09T14:51:27.677Z,3.83
2019-01-09T14:53:55.737Z,3.97
2019-01-09T14:56:23.890Z,3.37
2019-01-09T14:58:51.984Z,3.40
2019-01-09T15:01:20.091Z,3.33
2019-01-09T15:03:48.182Z,3.20
2019-01-09T15:06:16.436Z,3.00
2019-01-09T15:08:44.538Z,3.60
2019-01-09T15:11:12.657Z,3.17
2019-01-09T15:13:40.753Z,3.37
2019-01-09T15:16:08.905Z,3.27
2019-01-09T15:18:37.002Z,3.67
2019-01-09T15:21:05.171Z,3.23
2019-01-09T15:23:33.240Z,3.27
2019-01-09T15:26:02.488Z,3.70
2019-01-09T15:28:30.680Z,4.03
2019-01-09T15:30:58.757Z,3.27
2019-01-09T15:33:26.896Z,4.27
2019-01-09T15:35:55.084Z,3.47
2019-01-09T15:38:23.182Z,5.17
2019-01-09T15:40:51.257Z,7.50
2019-01-09T15:43:19.410Z,5.83
2019-01-09T15:45:47.480Z,5.30
2019-01-09T15:48:15.600Z,4.30
2019-01-09T15:50:43.625Z,5.30
2019-01-09T15:53:11.842Z,4.77
2019-01-09T15:55:39.930Z,4.30
2019-01-09T15:58:08.066Z,4.10
2019-01-09T16:00:37.883Z,5.27
2019-01-09T16:03:06.084Z,4.80
2019-01-09T16:05:34.262Z,5.60
2019-01-09T16:08:02.409Z,3.93
2019-01-09T16:10:31.400Z,4.57
2019-01-09T16:12:59.548Z,4.10
